createdAt,value
2022-12-15T00:01:48.680Z,23.83
2022-12-15T00:07:10.119Z,25.05
2022-12-15T00:12:31.370Z,25.05
2022-12-15T00:17:52.467Z,24.25
2022-12-15T00:23:14.111Z,25.05
2022-12-15T00:28:35.120Z,24.15
2022-12-15T00:33:56.089Z,25.58
2022-12-15T00:39:03.581Z,25.05
2022-12-15T00:44:06.787Z,24.77
2022-12-15T00:49:29.438Z,23.52
2022-12-15T00:54:50.911Z,25.10
2022-12-15T01:00:12.042Z,24.60
2022-12-15T01:05:33.624Z,24.48
2022-12-15T01:10:54.427Z,25.95
2022-12-15T01:16:15.819Z,22.25
2022-12-15T01:21:21.872Z,23.45
2022-12-15T01:26:26.733Z,23.73
2022-12-15T01:31:29.307Z,23.42
2022-12-15T01:36:32.015Z,22.75
2022-12-15T01:41:34.728Z,24.70
2022-12-15T01:46:37.428Z,24.35
2022-12-15T01:51:42.921Z,26.77
2022-12-15T01:56:48.058Z,25.25
2022-12-15T02:01:50.884Z,26.42
2022-12-15T02:06:53.809Z,25.23
2022-12-15T02:11:56.525Z,27.23
2022-12-15T02:17:28.238Z,26.65
2022-12-15T02:22:49.509Z,27.25
2022-12-15T02:27:52.209Z,27.45
2022-12-15T02:33:04.248Z,26.15
2022-12-15T02:38:08.712Z,26.58
2022-12-15T02:43:11.564Z,26.92
2022-12-15T02:48:23.178Z,27.08
2022-12-15T02:53:32.277Z,25.80
2022-12-15T02:58:46.836Z,27.45
2022-12-15T03:03:50.824Z,28.80
2022-12-15T03:08:53.509Z,26.27
2022-12-15T03:13:56.316Z,27.73
2022-12-15T03:18:59.123Z,27.27
2022-12-15T03:24:01.820Z,26.45
2022-12-15T03:29:04.634Z,26.90
2022-12-15T03:34:07.617Z,26.27
2022-12-15T03:39:10.560Z,29.13
2022-12-15T03:44:13.480Z,38.80
2022-12-15T03:49:16.124Z,32.75
2022-12-15T03:54:18.994Z,31.48
2022-12-15T03:59:21.655Z,41.47
2022-12-15T04:04:24.366Z,37.13
2022-12-15T04:09:27.117Z,31.95
2022-12-15T04:14:30.401Z,33.05
2022-12-15T04:19:51.799Z,30.00
2022-12-15T04:25:12.993Z,32.75
2022-12-15T04:30:34.336Z,33.83
2022-12-15T04:35:55.695Z,30.15
2022-12-15T04:41:16.661Z,30.23
2022-12-15T04:46:38.008Z,30.58
2022-12-15T04:51:59.392Z,30.15
2022-12-15T04:57:20.553Z,28.70
2022-12-15T05:02:41.575Z,28.15
2022-12-15T05:08:02.718Z,31.52
2022-12-15T05:13:26.924Z,27.65
2022-12-15T05:18:48.232Z,27.60
2022-12-15T05:24:09.422Z,26.27
2022-12-15T05:29:30.473Z,28.88
2022-12-15T05:34:33.820Z,26.55
2022-12-15T05:39:37.077Z,27.30
2022-12-15T05:44:39.793Z,27.27
2022-12-15T05:49:42.749Z,28.15
2022-12-15T05:54:45.320Z,26.45
2022-12-15T05:59:48.029Z,27.27
2022-12-15T06:04:50.843Z,26.58
2022-12-15T06:09:54.197Z,27.00
2022-12-15T06:14:57.053Z,26.63
2022-12-15T06:19:59.802Z,26.48
2022-12-15T06:25:02.375Z,25.05
2022-12-15T06:30:05.119Z,22.90
2022-12-15T06:35:08.113Z,23.45
2022-12-15T06:40:11.126Z,23.80
2022-12-15T06:45:13.969Z,21.40
2022-12-15T06:50:17.306Z,23.60
2022-12-15T06:55:19.856Z,22.85
2022-12-15T07:00:22.707Z,21.35
2022-12-15T07:05:25.639Z,23.70
2022-12-15T07:10:28.511Z,24.00
2022-12-15T07:15:31.823Z,22.80
2022-12-15T07:20:34.531Z,21.10
2022-12-15T07:25:37.541Z,21.48
2022-12-15T07:30:40.314Z,21.48
2022-12-15T07:35:42.798Z,21.42
2022-12-15T07:40:45.981Z,22.48
2022-12-15T07:45:52.387Z,22.23
2022-12-15T07:51:06.577Z,21.20
2022-12-15T07:56:10.634Z,20.30
2022-12-15T08:01:14.082Z,22.10
2022-12-15T08:06:16.836Z,21.20
2022-12-15T08:11:23.301Z,20.55
2022-12-15T08:16:25.989Z,20.70
2022-12-15T08:21:28.734Z,20.67
2022-12-15T08:26:31.842Z,20.27
2022-12-15T08:31:34.925Z,21.65
2022-12-15T08:36:37.939Z,20.20
2022-12-15T08:41:41.338Z,21.25
2022-12-15T08:46:43.974Z,19.02
2022-12-15T08:51:46.987Z,21.00
2022-12-15T08:56:52.774Z,20.55
2022-12-15T09:01:55.638Z,20.63
2022-12-15T09:06:58.251Z,20.10
2022-12-15T09:12:00.822Z,21.50
2022-12-15T09:17:03.914Z,21.27
2022-12-15T09:22:08.096Z,21.50
2022-12-15T09:27:10.765Z,20.00
2022-12-15T09:32:14.571Z,25.00
2022-12-15T09:37:17.206Z,21.30
2022-12-15T09:42:22.908Z,20.60
2022-12-15T09:47:45.858Z,19.85
2022-12-15T09:52:49.679Z,21.60
2022-12-15T09:57:56.318Z,20.98
2022-12-15T10:03:16.037Z,21.75
2022-12-15T10:08:19.140Z,21.33
2022-12-15T10:13:29.775Z,20.48
2022-12-15T10:18:35.458Z,20.65
2022-12-15T10:23:38.327Z,21.52
2022-12-15T10:28:53.701Z,20.80
2022-12-15T10:34:05.441Z,21.13
2022-12-15T10:39:10.571Z,21.15
2022-12-15T10:44:28.609Z,21.10
2022-12-15T10:49:37.107Z,21.15
2022-12-15T10:54:45.019Z,22.25
2022-12-15T10:59:47.752Z,21.17
2022-12-15T11:05:01.209Z,20.95
2022-12-15T11:10:10.521Z,21.88
2022-12-15T11:15:33.476Z,20.70
2022-12-15T11:20:50.843Z,20.98
2022-12-15T11:25:59.249Z,20.75
2022-12-15T11:31:08.395Z,23.42
2022-12-15T11:36:20.103Z,21.10
2022-12-15T11:41:22.909Z,23.00
2022-12-15T11:46:36.792Z,21.63
2022-12-15T11:51:44.419Z,21.17
2022-12-15T11:57:02.189Z,21.55
2022-12-15T12:02:25.421Z,21.17
2022-12-15T12:12:34.234Z,20.08
2022-12-15T12:17:39.923Z,21.55
2022-12-15T12:22:52.028Z,22.15
2022-12-15T12:28:04.022Z,22.80
2022-12-15T12:33:09.211Z,21.97
2022-12-15T12:38:12.569Z,20.98
2022-12-15T12:43:32.100Z,21.17
2022-12-15T12:48:43.668Z,20.13
2022-12-15T12:53:46.292Z,19.60
2022-12-15T12:58:51.402Z,20.30
2022-12-15T13:04:11.069Z,20.23
2022-12-15T13:09:16.732Z,19.10
2022-12-15T13:14:38.266Z,20.98
2022-12-15T13:20:11.455Z,19.92
2022-12-15T13:25:37.406Z,20.10
2022-12-15T13:31:04.572Z,20.27
2022-12-15T13:36:08.888Z,20.90
2022-12-15T13:41:24.230Z,20.58
2022-12-15T13:46:29.657Z,19.33
2022-12-15T13:51:33.553Z,20.88
2022-12-15T13:56:55.361Z,20.83
2022-12-15T14:01:58.010Z,18.92
2022-12-15T14:07:02.595Z,19.52
2022-12-15T14:12:07.634Z,18.98
2022-12-15T14:17:13.910Z,20.40
2022-12-15T14:22:27.459Z,19.52
2022-12-15T14:27:32.213Z,20.73
2022-12-15T14:32:35.838Z,18.65
2022-12-15T14:37:38.557Z,19.08
2022-12-15T14:42:41.581Z,19.50
2022-12-15T14:48:06.119Z,20.10
2022-12-15T14:53:15.656Z,19.25
2022-12-15T14:58:21.440Z,19.92
2022-12-15T15:03:27.440Z,18.55
2022-12-15T15:08:30.465Z,19.88
2022-12-15T15:13:39.998Z,19.00
2022-12-15T15:18:43.153Z,20.02
2022-12-15T15:24:18.038Z,20.35
2022-12-15T15:29:41.315Z,18.67
2022-12-15T15:34:47.807Z,19.23
2022-12-15T15:39:51.630Z,19.40
2022-12-15T15:44:54.250Z,29.30
2022-12-15T15:49:58.981Z,17.65
2022-12-15T15:55:01.452Z,18.63
2022-12-15T16:00:08.393Z,19.50
2022-12-15T16:05:11.330Z,19.38
2022-12-15T16:10:36.986Z,19.02
2022-12-15T16:15:39.649Z,19.42
2022-12-15T16:20:43.583Z,20.70
2022-12-15T16:25:50.832Z,20.70
2022-12-15T16:30:54.308Z,22.35
2022-12-15T16:35:57.614Z,21.30
2022-12-15T16:41:06.919Z,22.20
2022-12-15T16:46:12.196Z,21.55
2022-12-15T16:51:24.490Z,21.15
2022-12-15T16:56:27.017Z,21.25
2022-12-15T17:01:30.628Z,21.65
2022-12-15T17:06:35.893Z,22.52
2022-12-15T17:11:38.583Z,22.33
2022-12-15T17:16:41.228Z,22.20
2022-12-15T17:21:45.695Z,21.92
2022-12-15T17:26:48.606Z,22.58
2022-12-15T17:31:51.769Z,22.17
2022-12-15T17:36:54.861Z,22.73
2022-12-15T17:42:00.517Z,22.27
2022-12-15T17:47:05.939Z,23.33
2022-12-15T17:52:09.306Z,22.52
2022-12-15T17:57:12.899Z,23.60
2022-12-15T18:02:15.756Z,23.55
2022-12-15T18:07:20.923Z,23.23
2022-12-15T18:12:25.317Z,23.08
2022-12-15T18:17:28.896Z,21.92
2022-12-15T18:22:31.703Z,22.67
2022-12-15T18:27:34.423Z,23.63
2022-12-15T18:32:41.721Z,23.05
2022-12-15T18:37:44.554Z,24.38
2022-12-15T18:42:47.552Z,21.70
2022-12-15T18:47:50.842Z,23.15
2022-12-15T18:52:58.940Z,22.35
2022-12-15T18:58:02.013Z,22.85
2022-12-15T19:03:04.592Z,23.98
2022-12-15T19:08:10.608Z,24.38
2022-12-15T19:13:14.310Z,24.20
2022-12-15T19:18:36.784Z,24.08
2022-12-15T19:23:39.526Z,23.17
2022-12-15T19:28:42.263Z,25.02
2022-12-15T19:33:44.853Z,22.42
2022-12-15T19:38:47.653Z,23.67
2022-12-15T19:43:51.273Z,23.40
2022-12-15T19:48:54.109Z,23.92
2022-12-15T19:53:56.920Z,22.13
2022-12-15T19:58:59.657Z,23.73
2022-12-15T20:04:02.556Z,22.05
2022-12-15T20:09:07.302Z,23.63
2022-12-15T20:14:13.659Z,24.95
2022-12-15T20:19:16.211Z,23.63
2022-12-15T20:24:19.469Z,24.73
2022-12-15T20:29:26.567Z,25.20
2022-12-15T20:34:32.339Z,24.85
2022-12-15T20:39:35.036Z,23.77
2022-12-15T20:44:37.784Z,26.45
2022-12-15T20:49:40.275Z,24.63
2022-12-15T20:54:43.956Z,25.42
2022-12-15T20:59:48.618Z,24.40
2022-12-15T21:04:51.522Z,24.10
2022-12-15T21:09:54.216Z,24.33
2022-12-15T21:14:56.908Z,25.27
2022-12-15T21:19:59.586Z,25.67
2022-12-15T21:25:02.275Z,23.75
2022-12-15T21:30:13.794Z,23.60
2022-12-15T21:35:17.527Z,24.05
2022-12-15T21:40:20.898Z,23.83
2022-12-15T21:45:24.642Z,23.55
2022-12-15T21:50:27.197Z,22.33
2022-12-15T21:55:30.385Z,22.40
2022-12-15T22:00:33.023Z,22.60
2022-12-15T22:05:35.855Z,23.10
2022-12-15T22:10:38.407Z,22.55
2022-12-15T22:15:41.210Z,21.55
2022-12-15T22:20:45.961Z,21.50
2022-12-15T22:25:51.513Z,22.98
2022-12-15T22:30:55.681Z,22.10
2022-12-15T22:35:58.423Z,21.58
2022-12-15T22:41:01.348Z,22.10
2022-12-15T22:46:04.840Z,21.23
2022-12-15T22:51:08.086Z,22.55
2022-12-15T22:56:34.141Z,22.67
2022-12-15T23:01:36.880Z,22.63
2022-12-15T23:06:40.302Z,22.10
2022-12-15T23:11:44.241Z,21.98
2022-12-15T23:16:46.773Z,22.55
2022-12-15T23:21:50.098Z,22.00
2022-12-15T23:26:52.872Z,28.55
2022-12-15T23:31:55.660Z,23.52
2022-12-15T23:36:58.470Z,23.25
2022-12-15T23:42:00.891Z,22.40
2022-12-15T23:47:03.967Z,23.00
2022-12-15T23:52:06.459Z,22.65
2022-12-15T23:57:09.179Z,22.20
